Linda — OJML — position and weather

sailwx.info

Track history (hours):
 
Tides and Currents Weather Stations Pressure Air Temp Water Temp Dewpoint Dewpoint Depression Visibility Wind Speed Wind Dir Waves Ship Positions

Linda

Last reported at 2014-Nov-01 05:32 UTC. Time now 2014-Nov-01 07:02 UTC.
Position N 51°07' E 003°45'.

Length 141 m; draft 7.2 m.

Type: Ship (hazmat cat A). MMSI: 230984000.

Date/timePositionNaut miles runAvg speedWind from/ knotsBaromVisibWave heightAir tempDewpointWater temp
2014-Nov-01 05:32N 51°07' E 003°45'0 0.0
2014-Nov-01 04:29N 51°07' E 003°45'0 0.0
2014-Nov-01 03:33N 51°07' E 003°45'0 0.0
2014-Nov-01 02:23N 51°07' E 003°45'0 0.0
2014-Nov-01 01:32N 51°07' E 003°45'0 0.0
2014-Nov-01 00:32N 51°07' E 003°45'0 0.0
2014-Oct-31 23:32N 51°07' E 003°45'0 0.0
2014-Oct-31 22:21N 51°07' E 003°45'0 0.0
2014-Oct-31 21:32N 51°07' E 003°45'0 0.0
2014-Oct-31 20:26N 51°07' E 003°45'0 0.0
2014-Oct-31 19:32N 51°07' E 003°45'0 0.0
2014-Oct-31 18:32N 51°07' E 003°45'0 0.0
2014-Oct-31 17:14N 51°07' E 003°45'0 0.0
2014-Oct-31 16:32N 51°07' E 003°45'0 0.0
2014-Oct-31 15:26N 51°07' E 003°45'2 1.8
2014-Oct-31 14:33N 51°08' E 003°46'8 8.0
2014-Oct-31 13:33N 51°16' E 003°50'4 3.9
2014-Oct-31 12:33N 51°20' E 003°49'6 6.2
2014-Oct-31 11:34N 51°24' E 003°42'1111.5
2014-Oct-31 10:33N 51°24' E 003°24'1715.8
2014-Oct-31 09:30N 51°23' E 002°57'1616.2
2014-Oct-31 08:32N 51°22' E 002°32'1617.0
2014-Oct-31 07:34N 51°21' E 002°06'1716.6
2014-Oct-31 06:33N 51°29' E 001°43'1615.7
2014-Oct-31 05:33N 51°29' E 001°17'1717.2
2014-Oct-31 04:33N 51°28' E 000°50'4 3.7
2014-Oct-31 03:32N 51°26' E 000°44'0 0.0
2014-Oct-31 02:32N 51°26' E 000°44'0 0.0
2014-Oct-31 01:32N 51°26' E 000°44'0 0.0
2014-Oct-31 00:32N 51°26' E 000°44'0 0.0
2014-Oct-30 23:29N 51°26' E 000°44'0 0.0
2014-Oct-30 22:32N 51°26' E 000°44'0 0.0
2014-Oct-30 21:32N 51°26' E 000°44'0 0.0
2014-Oct-30 20:32N 51°26' E 000°44'0 0.4
2014-Oct-30 19:33N 51°27' E 000°44'1313.1
2014-Oct-30 18:33N 51°30' E 001°05'1514.8
2014-Oct-30 17:33N 51°27' E 001°28'1010.3
2014-Oct-30 16:33N 51°34' E 001°41'1615.8
2014-Oct-30 15:33N 51°50' E 001°44'1818.0
2014-Oct-30 14:33N 52°07' E 001°48'1918.5
2014-Oct-30 13:33N 52°26' E 001°54'1919.0
2014-Oct-30 12:34N 52°45' E 001°55'1919.4
2014-Oct-30 11:33N 52°59' E 001°33'5518.3
2014-Oct-30 08:33N 53°45' E 000°43'1717.5
2014-Oct-30 07:33N 53°58' E 000°23'1717.1
2014-Oct-30 06:33N 54°10' E 000°03'1716.9
2014-Oct-30 05:34N 54°23' W 000°17'1716.6
2014-Oct-30 04:33N 54°34' W 000°37'1716.4
2014-Oct-30 03:33N 54°41' W 001°03'6 0.6
2014-Oct-29 17:22N 54°36' W 001°09'0 0.0
2014-Oct-29 16:22N 54°36' W 001°09'0 0.0
2014-Oct-29 15:22N 54°36' W 001°09'0 0.0
2014-Oct-29 14:25N 54°36' W 001°09'0 0.0
2014-Oct-29 13:29N 54°36' W 001°09'4 4.5
2014-Oct-29 12:33N 54°40' W 001°07'1514.8
2014-Oct-29 11:33N 54°36' W 000°42'1716.7
2014-Oct-29 10:33N 54°30' W 000°15'1616.1
2014-Oct-29 09:33N 54°28' E 000°12'1615.7
2014-Oct-29 08:33N 54°27' E 000°39'13215.5
2014-Oct-29 00:04N 54°17' E 004°25'713.4
2014-Oct-28 23:33N 54°17' E 004°37'1313.1
2014-Oct-28 22:33N 54°16' E 004°59'1513.0
2014-Oct-28 21:22N 54°15' E 005°26'1213.6
2014-Oct-28 20:28N 54°14' E 005°46'4515.6
2014-Oct-28 17:33N 54°12' E 007°04'1716.7
2014-Oct-28 16:33N 54°12' E 007°32'1716.8
2014-Oct-28 15:33N 54°04' E 007°58'1615.7
2014-Oct-28 14:33N 53°59' E 008°23'1413.8
2014-Oct-28 13:33N 53°53' E 008°43'1211.8
2014-Oct-28 12:33N 53°52' E 009°03'4 3.5
2014-Oct-28 11:33N 53°54' E 009°09'2 1.8
2014-Oct-28 10:33N 53°55' E 009°11'7 7.1
2014-Oct-28 09:33N 54°01' E 009°18'7 6.9
2014-Oct-28 08:33N 54°08' E 009°20'6 6.5
2014-Oct-28 07:33N 54°11' E 009°29'8 6.1
2014-Oct-28 06:15N 54°17' E 009°38'5 6.3
2014-Oct-28 05:32N 54°20' E 009°44'6 6.2
2014-Oct-28 04:33N 54°21' E 009°54'6 5.6
2014-Oct-28 03:33N 54°22' E 010°04'1 1.2
2014-Oct-28 02:33N 54°22' E 010°05'2 1.9
2014-Oct-28 01:33N 54°22' E 010°09'1 0.9
2014-Oct-28 00:33N 54°22' E 010°10'0 0.4
2014-Oct-27 23:33N 54°22' E 010°10'0 0.0
2014-Oct-27 22:33N 54°22' E 010°10'0 0.1
2014-Oct-27 21:33N 54°22' E 010°10'2 2.4
2014-Oct-27 20:33N 54°25' E 010°12'1312.9
2014-Oct-27 19:33N 54°33' E 010°29'1514.9
2014-Oct-27 18:33N 54°35' E 010°54'2814.1
2014-Oct-27 16:33N 54°27' E 011°41'1414.4
2014-Oct-27 15:33N 54°26' E 012°05'3213.9
2014-Oct-27 13:16N 54°48' E 012°46'1114.6
2014-Oct-27 12:31N 54°47' E 013°05'1815.4
2014-Oct-27 11:19N 54°46' E 013°36'4314.9
2014-Oct-27 08:27N 54°43' E 014°51'1415.3
2014-Oct-27 07:33N 54°48' E 015°13'1615.3
2014-Oct-27 06:32N 54°53' E 015°38'16715.2
2014-Oct-26 19:33N 55°39' E 020°19'  
2014-Oct-23 12:33N 59°34' E 021°14'1413.5
2014-Oct-23 11:32N 59°34' E 021°41'4613.5
2014-Oct-23 08:08N 59°39' E 023°12'713.0
2014-Oct-23 07:33N 59°41' E 023°26'9 8.6
2014-Oct-23 06:33N 59°43' E 023°43'8513.7
2014-Oct-23 00:20N 60°01' E 026°29'1213.5
2014-Oct-22 23:25N 60°00' E 026°53'  
Track history (hours):
 
Tides and Currents Weather Stations Pressure Air Temp Water Temp Dewpoint Dewpoint Depression Visibility Wind Speed Wind Dir Waves Ship Positions

Linda

Last reported at 2014-Nov-01 05:32 UTC. Time now 2014-Nov-01 07:02 UTC.
Position N 51°07' E 003°45'.

Length 141 m; draft 7.2 m.

Type: Ship (hazmat cat A). MMSI: 230984000.

Date/timePositionNaut miles runAvg speedWind from/ knotsBaromVisibWave heightAir tempDewpointWater temp
2014-Nov-01 05:32N 51°07' E 003°45'0 0.0
2014-Nov-01 04:29N 51°07' E 003°45'0 0.0
2014-Nov-01 03:33N 51°07' E 003°45'0 0.0
2014-Nov-01 02:23N 51°07' E 003°45'0 0.0
2014-Nov-01 01:32N 51°07' E 003°45'0 0.0
2014-Nov-01 00:32N 51°07' E 003°45'0 0.0
2014-Oct-31 23:32N 51°07' E 003°45'0 0.0
2014-Oct-31 22:21N 51°07' E 003°45'0 0.0
2014-Oct-31 21:32N 51°07' E 003°45'0 0.0
2014-Oct-31 20:26N 51°07' E 003°45'0 0.0
2014-Oct-31 19:32N 51°07' E 003°45'0 0.0
2014-Oct-31 18:32N 51°07' E 003°45'0 0.0
2014-Oct-31 17:14N 51°07' E 003°45'0 0.0
2014-Oct-31 16:32N 51°07' E 003°45'0 0.0
2014-Oct-31 15:26N 51°07' E 003°45'2 1.8
2014-Oct-31 14:33N 51°08' E 003°46'8 8.0
2014-Oct-31 13:33N 51°16' E 003°50'4 3.9
2014-Oct-31 12:33N 51°20' E 003°49'6 6.2
2014-Oct-31 11:34N 51°24' E 003°42'1111.5
2014-Oct-31 10:33N 51°24' E 003°24'1715.8
2014-Oct-31 09:30N 51°23' E 002°57'1616.2
2014-Oct-31 08:32N 51°22' E 002°32'1617.0
2014-Oct-31 07:34N 51°21' E 002°06'1716.6
2014-Oct-31 06:33N 51°29' E 001°43'1615.7
2014-Oct-31 05:33N 51°29' E 001°17'1717.2
2014-Oct-31 04:33N 51°28' E 000°50'4 3.7
2014-Oct-31 03:32N 51°26' E 000°44'0 0.0
2014-Oct-31 02:32N 51°26' E 000°44'0 0.0
2014-Oct-31 01:32N 51°26' E 000°44'0 0.0
2014-Oct-31 00:32N 51°26' E 000°44'0 0.0
2014-Oct-30 23:29N 51°26' E 000°44'0 0.0
2014-Oct-30 22:32N 51°26' E 000°44'0 0.0
2014-Oct-30 21:32N 51°26' E 000°44'0 0.0
2014-Oct-30 20:32N 51°26' E 000°44'0 0.4
2014-Oct-30 19:33N 51°27' E 000°44'1313.1
2014-Oct-30 18:33N 51°30' E 001°05'1514.8
2014-Oct-30 17:33N 51°27' E 001°28'1010.3
2014-Oct-30 16:33N 51°34' E 001°41'1615.8
2014-Oct-30 15:33N 51°50' E 001°44'1818.0
2014-Oct-30 14:33N 52°07' E 001°48'1918.5
2014-Oct-30 13:33N 52°26' E 001°54'1919.0
2014-Oct-30 12:34N 52°45' E 001°55'1919.4
2014-Oct-30 11:33N 52°59' E 001°33'5518.3
2014-Oct-30 08:33N 53°45' E 000°43'1717.5
2014-Oct-30 07:33N 53°58' E 000°23'1717.1
2014-Oct-30 06:33N 54°10' E 000°03'1716.9
2014-Oct-30 05:34N 54°23' W 000°17'1716.6
2014-Oct-30 04:33N 54°34' W 000°37'1716.4
2014-Oct-30 03:33N 54°41' W 001°03'6 0.6
2014-Oct-29 17:22N 54°36' W 001°09'0 0.0
2014-Oct-29 16:22N 54°36' W 001°09'0 0.0
2014-Oct-29 15:22N 54°36' W 001°09'0 0.0
2014-Oct-29 14:25N 54°36' W 001°09'0 0.0
2014-Oct-29 13:29N 54°36' W 001°09'4 4.5
2014-Oct-29 12:33N 54°40' W 001°07'1514.8
2014-Oct-29 11:33N 54°36' W 000°42'1716.7
2014-Oct-29 10:33N 54°30' W 000°15'1616.1
2014-Oct-29 09:33N 54°28' E 000°12'1615.7
2014-Oct-29 08:33N 54°27' E 000°39'13215.5
2014-Oct-29 00:04N 54°17' E 004°25'713.4
2014-Oct-28 23:33N 54°17' E 004°37'1313.1
2014-Oct-28 22:33N 54°16' E 004°59'1513.0
2014-Oct-28 21:22N 54°15' E 005°26'1213.6
2014-Oct-28 20:28N 54°14' E 005°46'4515.6
2014-Oct-28 17:33N 54°12' E 007°04'1716.7
2014-Oct-28 16:33N 54°12' E 007°32'1716.8
2014-Oct-28 15:33N 54°04' E 007°58'1615.7
2014-Oct-28 14:33N 53°59' E 008°23'1413.8
2014-Oct-28 13:33N 53°53' E 008°43'1211.8
2014-Oct-28 12:33N 53°52' E 009°03'4 3.5
2014-Oct-28 11:33N 53°54' E 009°09'2 1.8
2014-Oct-28 10:33N 53°55' E 009°11'7 7.1
2014-Oct-28 09:33N 54°01' E 009°18'7 6.9
2014-Oct-28 08:33N 54°08' E 009°20'6 6.5
2014-Oct-28 07:33N 54°11' E 009°29'8 6.1
2014-Oct-28 06:15N 54°17' E 009°38'5 6.3
2014-Oct-28 05:32N 54°20' E 009°44'6 6.2
2014-Oct-28 04:33N 54°21' E 009°54'6 5.6
2014-Oct-28 03:33N 54°22' E 010°04'1 1.2
2014-Oct-28 02:33N 54°22' E 010°05'2 1.9
2014-Oct-28 01:33N 54°22' E 010°09'1 0.9
2014-Oct-28 00:33N 54°22' E 010°10'0 0.4
2014-Oct-27 23:33N 54°22' E 010°10'0 0.0
2014-Oct-27 22:33N 54°22' E 010°10'0 0.1
2014-Oct-27 21:33N 54°22' E 010°10'2 2.4
2014-Oct-27 20:33N 54°25' E 010°12'1312.9
2014-Oct-27 19:33N 54°33' E 010°29'1514.9
2014-Oct-27 18:33N 54°35' E 010°54'2814.1
2014-Oct-27 16:33N 54°27' E 011°41'1414.4
2014-Oct-27 15:33N 54°26' E 012°05'3213.9
2014-Oct-27 13:16N 54°48' E 012°46'1114.6
2014-Oct-27 12:31N 54°47' E 013°05'1815.4
2014-Oct-27 11:19N 54°46' E 013°36'4314.9
2014-Oct-27 08:27N 54°43' E 014°51'1415.3
2014-Oct-27 07:33N 54°48' E 015°13'1615.3
2014-Oct-27 06:32N 54°53' E 015°38'16715.2
2014-Oct-26 19:33N 55°39' E 020°19'  
2014-Oct-23 12:33N 59°34' E 021°14'1413.5
2014-Oct-23 11:32N 59°34' E 021°41'4613.5
2014-Oct-23 08:08N 59°39' E 023°12'713.0
2014-Oct-23 07:33N 59°41' E 023°26'9 8.6
2014-Oct-23 06:33N 59°43' E 023°43'8513.7
2014-Oct-23 00:20N 60°01' E 026°29'1213.5
2014-Oct-22 23:25N 60°00' E 026°53'  

Dump ship's entire track history